Merida, Mexico

9:57 PM CST on February 19, 2017 (GMT -0600)
Lic Manuel Crecencio Rejon | | Change Station

Elev 33 ft 20.98 °N, 89.65 °W | Updated 1 hour ago

Scattered Clouds
Scattered Clouds
84 °F
Feels Like 85 °F
N
12
Wind Variable Wind from ESE

Today
High -- | Low -- °F
--% Chance of Precip.
Yesterday
High -- | Low -- °F
Precip. -- in
Pressure 29.93 in
Visibility 7.0 miles
Clouds Scattered Clouds 30000 ft
Heat Index 85 °F
Dew Point 63 °F
Humidity 48%
Rainfall 0.00 in
Snow Depth Not available.
6:26 AM 5:59 PM
Last Quarter, 37% visible
METAR MMMD 200250Z 12010KT 7SM SCT300 29/17 A2989 RMK SLP133 52024 910 8/008
Pressure 29.93 in
Visibility 7.0 miles
Clouds Scattered Clouds 30000 ft
Heat Index 85 °F
Dew Point 63 °F
Humidity 48%
Rainfall 0.00 in
Snow Depth Not available.
6:26 AM 5:59 PM
Last Quarter, 37% visible
METAR MMMD 200250Z 12010KT 7SM SCT300 29/17 A2989 RMK SLP133 52024 910 8/008

Get Your Daily Forecast Email!

Thanks for signing up!

Be on the lookout for a verification email in your inbox.

You'll start receiving the daily forecast at 8 AM.

×

10-Day Weather Forecast

No radar image for this location.
×

Almanac

Astronomy

Feb. 19, 2017 Rise Set
Actual Time
Civil Twilight
Nautical Twilight
Astronomical Twilight
Moon
Length of Visible Light
Length of Day
Tomorrow will be .
, % of the Moon is Illuminated

Today's Extremes

Country Highs Country Lows

Community

WunderPhotos

Upload Photos

1,962,540 photos uploaded!

WunderBlog® & News

Nearby

Air Quality

  Air Quality AQ Index Pollutant
Not available.

Snow Depth

Station Depth Elevation

Earthquake Activity

City Distance Mag. Time & Date
Minimum magnitude displayed is 2.5.

Coastal Water Temperatures

Place Temperature

Stations

Nearby Weather Stations

Station Location Temp. Windchill Dew Point Humidity Wind Precip. Elev Updated Type